createdAt,value
2017-01-10T00:00:02.525Z,0
2017-01-10T00:10:02.966Z,0
2017-01-10T00:20:02.432Z,0
2017-01-10T00:30:02.826Z,0
2017-01-10T00:40:03.237Z,0
2017-01-10T00:50:02.643Z,0
2017-01-10T01:00:03.027Z,0
2017-01-10T01:10:02.417Z,0
2017-01-10T01:20:02.900Z,0
2017-01-10T01:30:02.297Z,0
2017-01-10T01:40:02.699Z,0
2017-01-10T01:50:03.105Z,0
2017-01-10T02:00:02.493Z,0
2017-01-10T02:10:02.909Z,0
2017-01-10T02:20:02.414Z,0
2017-01-10T02:30:02.837Z,0
2017-01-10T02:40:03.210Z,0
2017-01-10T02:50:02.666Z,0
2017-01-10T03:00:03.090Z,0
2017-01-10T03:10:02.510Z,0
2017-01-10T03:20:02.995Z,0
2017-01-10T03:30:02.411Z,0
2017-01-10T03:40:02.832Z,0
2017-01-10T03:50:03.253Z,0
2017-01-10T04:00:02.640Z,0
2017-01-10T04:10:03.071Z,0
2017-01-10T04:20:02.576Z,0
2017-01-10T04:30:02.985Z,0
2017-01-10T04:40:02.402Z,0
2017-01-10T04:50:02.943Z,0
2017-01-10T05:00:02.392Z,0
2017-01-10T05:10:02.922Z,0
2017-01-10T05:20:02.436Z,0
2017-01-10T05:30:02.412Z,0
2017-01-10T05:40:02.847Z,0
2017-01-10T05:50:03.333Z,0
2017-01-10T06:00:02.702Z,0
2017-01-10T06:10:03.172Z,0
2017-01-10T06:20:02.706Z,0
2017-01-10T06:30:03.099Z,0
2017-01-10T06:40:02.500Z,0
2017-01-10T06:50:02.925Z,0
2017-01-10T07:00:02.323Z,514
2017-01-10T07:10:02.783Z,3341
2017-01-10T07:20:03.282Z,9766
2017-01-10T07:30:02.680Z,16705
2017-01-10T07:40:03.123Z,26728
2017-01-10T07:50:02.521Z,35466
2017-01-10T08:00:02.923Z,43947
2017-01-10T08:10:02.348Z,6425
2017-01-10T08:20:02.876Z,28527
2017-01-10T08:30:03.321Z,51914
2017-01-10T08:40:02.685Z,44975
2017-01-10T08:50:03.134Z,19789
2017-01-10T09:00:02.486Z,40349
2017-01-10T09:10:02.899Z,58082
2017-01-10T09:20:02.335Z,6168
2017-01-10T09:30:02.748Z,25443
2017-01-10T09:40:03.168Z,7967
2017-01-10T09:50:02.524Z,35980
2017-01-10T10:00:02.908Z,40092
2017-01-10T10:10:02.308Z,19275
2017-01-10T10:20:02.812Z,28784
2017-01-10T10:30:03.183Z,28270
2017-01-10T10:40:02.545Z,1028
2017-01-10T10:50:03.032Z,63222
2017-01-10T11:00:02.424Z,22102
2017-01-10T11:10:02.856Z,5654
2017-01-10T11:20:02.346Z,39321
2017-01-10T11:30:02.778Z,30583
2017-01-10T11:40:03.189Z,4112
2017-01-10T11:50:02.623Z,1542
2017-01-10T12:00:03.039Z,15934
2017-01-10T12:10:02.457Z,54484
2017-01-10T12:20:02.973Z,5654
2017-01-10T12:30:02.375Z,5140
2017-01-10T12:40:02.797Z,29298
2017-01-10T12:50:03.235Z,26214
2017-01-10T13:00:02.655Z,23644
2017-01-10T13:10:03.089Z,4626
2017-01-10T13:20:02.521Z,6939
2017-01-10T13:30:02.940Z,16705
2017-01-10T13:40:02.335Z,54741
2017-01-10T13:50:02.748Z,57568
2017-01-10T14:00:03.180Z,52171
2017-01-10T14:10:02.606Z,33410
2017-01-10T14:20:03.109Z,40606
2017-01-10T14:30:02.513Z,31354
2017-01-10T14:40:02.964Z,30840
2017-01-10T14:50:02.416Z,18761
2017-01-10T15:00:02.849Z,14649
2017-01-10T15:10:03.277Z,10023
2017-01-10T15:20:02.767Z,5911
2017-01-10T15:30:03.189Z,4369
2017-01-10T15:40:02.518Z,2056
2017-01-10T15:50:02.956Z,514
2017-01-10T16:00:02.366Z,0
2017-01-10T16:10:02.774Z,0
2017-01-10T16:20:03.323Z,0
2017-01-10T16:30:02.738Z,0
2017-01-10T16:40:03.192Z,0
2017-01-10T16:50:02.606Z,0
2017-01-10T17:10:03.290Z,0
2017-01-10T17:20:02.828Z,0
2017-01-10T17:30:03.343Z,0
2017-01-10T17:40:02.780Z,0
2017-01-10T17:50:03.223Z,0
2017-01-10T18:00:02.623Z,0
2017-01-10T18:10:03.050Z,0
2017-01-10T18:20:02.528Z,0
2017-01-10T18:30:02.992Z,0
2017-01-10T18:40:02.755Z,0
2017-01-10T18:50:03.281Z,0
2017-01-10T19:00:02.705Z,0
2017-01-10T19:10:03.115Z,0
2017-01-10T19:20:03.230Z,0
2017-01-10T19:30:02.578Z,0
2017-01-10T19:40:04.680Z,0
2017-01-10T19:50:02.501Z,0
2017-01-10T20:00:02.884Z,0
2017-01-10T20:10:03.299Z,0
2017-01-10T20:20:02.817Z,0
2017-01-10T20:30:03.545Z,0
2017-01-10T20:40:02.957Z,0
2017-01-10T20:50:02.387Z,0
2017-01-10T21:00:02.805Z,0
2017-01-10T21:10:03.263Z,0
2017-01-10T21:20:02.785Z,0
2017-01-10T21:30:03.204Z,0
2017-01-10T21:40:02.623Z,0
2017-01-10T21:50:03.141Z,0
2017-01-10T22:00:02.500Z,0
2017-01-10T22:10:02.922Z,0
2017-01-10T22:20:02.433Z,0
2017-01-10T22:30:02.830Z,0
2017-01-10T22:40:03.236Z,0
2017-01-10T22:50:02.639Z,0
2017-01-10T23:00:04.111Z,0
2017-01-10T23:10:02.483Z,0
2017-01-10T23:20:02.984Z,0
2017-01-10T23:30:02.381Z,0
2017-01-10T23:40:02.788Z,0
2017-01-10T23:50:03.233Z,0
